createdAt,value
2019-06-08T00:01:20.808Z,100385.59
2019-06-08T00:03:50.341Z,100374.56
2019-06-08T00:06:20.694Z,100383.83
2019-06-08T00:08:50.280Z,100384.55
2019-06-08T00:11:19.497Z,100377.94
2019-06-08T00:13:48.685Z,100383.97
2019-06-08T00:16:17.835Z,100398.33
2019-06-08T00:18:47.017Z,100395.41
2019-06-08T00:21:17.549Z,100390.42
2019-06-08T00:23:46.849Z,100400.27
2019-06-08T00:26:16.105Z,100397.70
2019-06-08T00:28:45.291Z,100398.67
2019-06-08T00:31:15.340Z,100397.28
2019-06-08T00:33:44.518Z,100400.89
2019-06-08T00:36:14.767Z,100402.83
2019-06-08T00:38:44.040Z,100392.22
2019-06-08T00:41:13.221Z,100395.55
2019-06-08T00:43:42.406Z,100406.64
2019-06-08T00:46:11.581Z,100413.72
2019-06-08T00:48:40.741Z,100422.25
2019-06-08T00:51:09.972Z,100416.36
2019-06-08T00:53:39.145Z,100425.09
2019-06-08T00:56:08.332Z,100418.12
2019-06-08T00:58:37.530Z,100426.59
2019-06-08T01:01:06.783Z,100430.84
2019-06-08T01:03:35.936Z,100423.42
2019-06-08T01:06:05.152Z,100433.17
2019-06-08T01:08:34.324Z,100430.17
2019-06-08T01:11:03.564Z,100431.43
2019-06-08T01:13:32.693Z,100410.95
2019-06-08T01:16:01.838Z,100428.64
2019-06-08T01:18:31.193Z,100426.48
2019-06-08T01:21:00.346Z,100433.26
2019-06-08T01:23:29.838Z,100440.05
2019-06-08T01:25:59.043Z,100427.21
2019-06-08T01:28:28.275Z,100418.61
2019-06-08T01:30:57.462Z,100419.30
2019-06-08T01:33:26.697Z,100433.80
2019-06-08T01:35:55.812Z,100436.36
2019-06-08T01:38:25.141Z,100434.84
2019-06-08T01:40:54.391Z,100433.73
2019-06-08T01:43:23.724Z,100440.18
2019-06-08T01:45:52.940Z,100426.93
2019-06-08T01:48:22.407Z,100434.13
2019-06-08T01:50:51.672Z,100429.63
2019-06-08T01:53:22.797Z,100428.66
2019-06-08T01:55:52.113Z,100423.03
2019-06-08T01:58:23.335Z,100422.48
2019-06-08T02:00:52.534Z,100421.72
2019-06-08T02:03:21.841Z,100426.30
2019-06-08T02:05:51.131Z,100426.70
2019-06-08T02:08:20.320Z,100425.39
2019-06-08T02:10:49.506Z,100424.70
2019-06-08T02:13:18.796Z,100433.16
2019-06-08T02:15:48.105Z,100432.05
2019-06-08T02:18:35.095Z,100432.84
2019-06-08T02:20:50.068Z,100436.48
2019-06-08T02:23:19.355Z,100440.27
2019-06-08T02:25:48.626Z,100433.99
2019-06-08T02:28:17.842Z,100438.78
2019-06-08T02:30:47.256Z,100432.22
2019-06-08T02:33:16.452Z,100429.72
2019-06-08T02:35:45.619Z,100441.65
2019-06-08T02:38:14.910Z,100425.45
2019-06-08T02:40:44.187Z,100439.27
2019-06-08T02:43:13.648Z,100442.91
2019-06-08T02:45:42.918Z,100447.04
2019-06-08T02:48:12.099Z,100446.91
2019-06-08T02:50:54.711Z,100456.06
2019-06-08T02:53:24.070Z,100456.70
2019-06-08T02:55:53.523Z,100448.09
2019-06-08T02:58:22.720Z,100452.27
2019-06-08T03:00:53.507Z,100457.61
2019-06-08T03:03:22.693Z,100462.25
2019-06-08T03:05:52.467Z,100448.31
2019-06-08T03:08:22.016Z,100464.28
2019-06-08T03:10:54.857Z,100461.84
2019-06-08T03:13:25.156Z,100458.14
2019-06-08T03:15:54.935Z,100468.23
2019-06-08T03:18:24.220Z,100465.56
2019-06-08T03:20:53.446Z,100466.67
2019-06-08T03:23:22.681Z,100470.77
2019-06-08T03:25:53.308Z,100470.91
2019-06-08T03:28:23.176Z,100475.70
2019-06-08T03:30:54.915Z,100477.09
2019-06-08T03:33:23.339Z,100478.33
2019-06-08T03:35:57.857Z,100486.80
2019-06-08T03:38:23.336Z,100477.09
2019-06-08T03:40:52.518Z,100478.48
2019-06-08T03:43:21.726Z,100485.63
2019-06-08T03:45:50.920Z,100483.55
2019-06-08T03:48:20.147Z,100490.34
2019-06-08T03:50:49.321Z,100488.40
2019-06-08T03:53:18.740Z,100493.81
2019-06-08T03:55:47.889Z,100501.37
2019-06-08T03:58:17.037Z,100484.06
2019-06-08T04:00:47.063Z,100501.03
2019-06-08T04:03:18.736Z,100509.73
2019-06-08T04:05:47.919Z,100509.59
2019-06-08T04:08:18.940Z,100518.23
2019-06-08T04:10:50.127Z,100518.64
2019-06-08T04:13:19.063Z,100523.29
2019-06-08T04:15:50.184Z,100528.97
2019-06-08T04:18:19.267Z,100517.33
2019-06-08T04:20:49.365Z,100537.23
2019-06-08T04:23:19.447Z,100522.17
2019-06-08T04:25:50.442Z,100538.20
2019-06-08T04:28:19.745Z,100535.80
2019-06-08T04:30:49.844Z,100542.29
2019-06-08T04:33:19.451Z,100542.91
2019-06-08T04:35:50.632Z,100539.39
2019-06-08T04:38:19.540Z,100547.48
2019-06-08T04:40:50.164Z,100546.47
2019-06-08T04:43:19.460Z,100557.89
2019-06-08T04:45:49.897Z,100563.25
2019-06-08T04:48:19.284Z,100553.81
2019-06-08T04:50:49.848Z,100568.87
2019-06-08T04:53:19.410Z,100558.04
2019-06-08T04:55:49.291Z,100563.17
2019-06-08T04:58:18.774Z,100570.03
2019-06-08T05:00:50.244Z,100575.73
2019-06-08T05:03:18.867Z,100568.58
2019-06-08T05:05:49.903Z,100572.94
2019-06-08T05:08:18.992Z,100572.94
2019-06-08T05:10:49.716Z,100581.33
2019-06-08T05:13:19.044Z,100580.36
2019-06-08T05:15:50.055Z,100582.23
2019-06-08T05:18:19.109Z,100590.36
2019-06-08T05:20:50.843Z,100593.10
2019-06-08T05:23:19.355Z,100592.43
2019-06-08T05:25:49.351Z,100600.82
2019-06-08T05:28:18.818Z,100608.59
2019-06-08T05:30:48.003Z,100608.33
2019-06-08T05:33:17.198Z,100599.82
2019-06-08T05:35:47.556Z,100605.52
2019-06-08T05:38:16.884Z,100602.63
2019-06-08T05:40:46.086Z,100592.22
2019-06-08T05:43:15.316Z,100605.52
2019-06-08T05:45:45.706Z,100598.85
2019-06-08T05:48:14.973Z,100600.87
2019-06-08T05:50:56.854Z,100608.16
2019-06-08T05:53:15.415Z,100617.46
2019-06-08T05:55:45.890Z,100608.38
2019-06-08T05:58:15.388Z,100621.24
2019-06-08T06:00:44.556Z,100631.13
2019-06-08T06:03:13.709Z,100628.23
2019-06-08T06:05:42.955Z,100633.50
2019-06-08T06:08:18.907Z,100604.98
2019-06-08T06:10:44.687Z,100631.83
2019-06-08T06:13:14.124Z,100624.80
2019-06-08T06:15:45.324Z,100638.97
2019-06-08T06:18:14.549Z,100639.73
2019-06-08T06:20:45.270Z,100640.70
2019-06-08T06:23:15.681Z,100644.38
2019-06-08T06:25:45.402Z,100639.03
2019-06-08T06:28:14.682Z,100649.48
2019-06-08T06:30:44.251Z,100656.42
2019-06-08T06:33:14.083Z,100653.30
2019-06-08T06:35:43.802Z,100654.75
2019-06-08T06:38:13.130Z,100654.39
2019-06-08T06:40:43.836Z,100656.42
2019-06-08T06:43:13.220Z,100678.25
2019-06-08T06:45:44.148Z,100676.45
2019-06-08T06:48:13.621Z,100684.67
2019-06-08T06:50:44.294Z,100684.80
2019-06-08T06:53:13.594Z,100688.53
2019-06-08T06:55:42.904Z,100706.62
2019-06-08T06:58:12.079Z,100700.50
2019-06-08T07:00:41.224Z,100702.88
2019-06-08T07:03:10.503Z,100708.70
2019-06-08T07:05:39.658Z,100720.41
2019-06-08T07:08:08.831Z,100723.27
2019-06-08T07:10:38.049Z,100714.78
2019-06-08T07:13:07.250Z,100724.96
2019-06-08T07:15:41.609Z,100736.66
2019-06-08T07:18:07.331Z,100745.92
2019-06-08T07:20:36.560Z,100743.45
2019-06-08T07:23:05.755Z,100745.50
2019-06-08T07:25:34.939Z,100747.48
2019-06-08T07:28:04.233Z,100759.11
2019-06-08T07:30:33.503Z,100766.34
2019-06-08T07:33:02.799Z,100748.64
2019-06-08T07:35:32.077Z,100776.52
2019-06-08T07:38:01.473Z,100776.62
2019-06-08T07:40:30.713Z,100776.76
2019-06-08T07:43:01.837Z,100784.34
2019-06-08T07:45:31.153Z,100784.70
2019-06-08T07:48:00.671Z,100781.60
2019-06-08T07:50:29.948Z,100793.55
2019-06-08T07:52:59.245Z,100784.12
2019-06-08T07:55:28.487Z,100774.91
2019-06-08T07:57:57.851Z,100793.32
2019-06-08T08:00:27.072Z,100789.98
2019-06-08T08:02:56.546Z,100786.86
2019-06-08T08:05:25.735Z,100799.05
2019-06-08T08:07:56.855Z,100797.67
2019-06-08T08:10:27.638Z,100796.61
2019-06-08T08:12:56.916Z,100794.27
2019-06-08T08:15:27.804Z,100802.50
2019-06-08T08:17:57.752Z,100800.66
2019-06-08T08:20:27.025Z,100808.88
2019-06-08T08:23:01.998Z,100811.22
2019-06-08T08:25:29.202Z,100817.55
2019-06-08T08:28:00.683Z,100813.08
2019-06-08T08:30:29.708Z,100822.36
2019-06-08T08:33:01.690Z,100816.22
2019-06-08T08:35:29.905Z,100816.55
2019-06-08T08:38:03.859Z,100816.44
2019-06-08T08:40:30.676Z,100814.16
2019-06-08T08:43:01.495Z,100821.81
2019-06-08T08:45:31.101Z,100827.09
2019-06-08T08:48:20.044Z,100831.97
2019-06-08T08:50:31.528Z,100843.14
2019-06-08T08:53:02.473Z,100853.60
2019-06-08T08:55:31.914Z,100856.41
2019-06-08T08:58:02.174Z,100860.16
2019-06-08T09:00:31.475Z,100847.30
2019-06-08T09:03:24.335Z,100853.39
2019-06-08T09:05:31.681Z,100867.34
2019-06-08T09:08:03.718Z,100869.03
2019-06-08T09:10:33.292Z,100855.49
2019-06-08T09:13:04.627Z,100877.98
2019-06-08T09:15:33.524Z,100868.60
2019-06-08T09:18:03.885Z,100866.28
2019-06-08T09:20:33.259Z,100890.55
2019-06-08T09:23:11.645Z,100884.36
2019-06-08T09:25:33.575Z,100876.45
2019-06-08T09:28:04.811Z,100887.55
2019-06-08T09:30:33.873Z,100890.99
2019-06-08T09:33:04.326Z,100882.92
2019-06-08T09:35:33.643Z,100891.05
2019-06-08T09:38:04.874Z,100891.95
2019-06-08T09:40:34.446Z,100893.42
2019-06-08T09:43:09.135Z,100903.79
2019-06-08T09:45:34.908Z,100904.45
2019-06-08T09:48:05.665Z,100900.02
2019-06-08T09:50:35.258Z,100903.41
2019-06-08T09:53:20.140Z,100899.47
2019-06-08T09:55:38.163Z,100894.30
2019-06-08T09:58:11.510Z,100901.66
2019-06-08T10:00:37.993Z,100899.91
2019-06-08T10:03:09.432Z,100900.70
2019-06-08T10:05:40.315Z,100904.92
2019-06-08T10:08:09.869Z,100907.47
2019-06-08T10:10:39.286Z,100901.65
2019-06-08T10:13:09.731Z,100908.97
2019-06-08T10:15:39.512Z,100924.52
2019-06-08T10:18:08.789Z,100911.07
2019-06-08T10:20:38.441Z,100915.05
2019-06-08T10:23:26.818Z,100911.98
2019-06-08T10:25:38.891Z,100922.19
2019-06-08T10:28:13.693Z,100913.95
2019-06-08T10:30:39.192Z,100928.25
2019-06-08T10:33:10.045Z,100925.03
2019-06-08T10:35:39.426Z,100940.19
2019-06-08T10:38:11.898Z,100936.66
2019-06-08T10:41:04.782Z,100932.33
2019-06-08T10:43:29.748Z,100937.77
2019-06-08T10:46:02.866Z,100926.70
2019-06-08T10:48:30.289Z,100943.97
2019-06-08T10:51:03.398Z,100936.92
2019-06-08T10:53:45.206Z,100938.73
2019-06-08T10:56:03.450Z,100952.56
2019-06-08T10:58:33.469Z,100960.42
2019-06-08T11:01:05.787Z,100965.51
2019-06-08T11:03:33.845Z,100973.75
2019-06-08T11:06:04.444Z,100978.77
2019-06-08T11:08:34.134Z,100976.41
2019-06-08T11:11:04.917Z,100982.14
2019-06-08T11:13:34.325Z,100994.36
2019-06-08T11:16:04.434Z,101003.52
2019-06-08T11:18:34.534Z,100997.72
2019-06-08T11:21:05.813Z,101001.19
2019-06-08T11:23:34.689Z,101007.83
2019-06-08T11:26:12.823Z,101003.23
2019-06-08T11:28:34.896Z,101015.66
2019-06-08T11:31:04.111Z,101003.22
2019-06-08T11:33:33.386Z,101005.98
2019-06-08T11:36:06.117Z,101004.49
2019-06-08T11:38:33.672Z,101003.08
2019-06-08T11:41:04.576Z,101016.28
2019-06-08T11:43:33.910Z,101028.71
2019-06-08T11:46:04.639Z,101030.93
2019-06-08T11:48:34.019Z,101028.30
2019-06-08T11:51:04.664Z,101026.27
2019-06-08T11:53:34.051Z,101024.19
2019-06-08T11:56:04.714Z,101039.16
2019-06-08T11:58:33.915Z,101032.25
2019-06-08T12:01:09.448Z,101037.84
2019-06-08T12:03:38.736Z,101048.62
2019-06-08T12:06:10.480Z,101050.52
2019-06-08T12:08:38.560Z,101070.66
2019-06-08T12:11:15.744Z,101051.27
2019-06-08T12:13:40.125Z,101075.59
2019-06-08T12:16:15.876Z,101060.70
2019-06-08T12:18:40.521Z,101067.07
2019-06-08T12:21:11.434Z,101079.13
2019-06-08T12:23:41.125Z,101085.36
2019-06-08T12:26:10.541Z,101091.42
2019-06-08T12:28:39.808Z,101093.06
2019-06-08T12:31:12.078Z,101110.16
2019-06-08T12:33:40.257Z,101105.77
2019-06-08T12:36:13.613Z,101117.08
2019-06-08T12:38:41.945Z,101100.86
2019-06-08T12:41:12.713Z,101101.66
2019-06-08T12:43:42.443Z,101099.22
2019-06-08T12:46:13.440Z,101111.61
2019-06-08T12:48:42.819Z,101109.68
2019-06-08T12:51:13.669Z,101122.55
2019-06-08T12:53:43.123Z,101109.19
2019-06-08T12:56:14.742Z,101122.24
2019-06-08T12:58:44.031Z,101130.43
2019-06-08T13:01:14.559Z,101137.88
2019-06-08T13:03:43.894Z,101138.18
2019-06-08T13:06:14.067Z,101153.28
2019-06-08T13:08:43.481Z,101157.05
2019-06-08T13:11:13.868Z,101176.37
2019-06-08T13:13:43.405Z,101186.81
2019-06-08T13:16:12.764Z,101181.08
2019-06-08T13:18:42.014Z,101177.41
2019-06-08T13:21:23.420Z,101188.48
2019-06-08T13:23:42.226Z,101198.23
2019-06-08T13:26:13.791Z,101206.34
2019-06-08T13:28:42.387Z,101225.30
2019-06-08T13:31:14.261Z,101221.60
2019-06-08T13:33:42.586Z,101210.94
2019-06-08T13:36:12.353Z,101219.38
2019-06-08T13:38:41.580Z,101212.03
2019-06-08T13:41:10.951Z,101194.38
2019-06-08T13:43:40.717Z,101194.67
2019-06-08T13:46:09.923Z,101190.78
2019-06-08T13:48:39.136Z,101176.37
2019-06-08T13:51:11.844Z,101180.84
2019-06-08T13:53:39.455Z,101182.89
2019-06-08T13:56:08.714Z,101173.77
2019-06-08T13:58:38.349Z,101180.55
2019-06-08T14:01:09.960Z,101173.59
2019-06-08T14:03:39.656Z,101175.94
2019-06-08T14:06:10.383Z,101175.94
2019-06-08T14:08:39.719Z,101180.61
2019-06-08T14:11:08.966Z,101181.75
2019-06-08T14:13:38.273Z,101180.94
2019-06-08T14:16:11.119Z,101196.70
2019-06-08T14:18:38.792Z,101222.33
2019-06-08T14:21:08.136Z,101252.34
2019-06-08T14:23:38.709Z,101230.42
2019-06-08T14:26:08.522Z,101229.84
2019-06-08T14:28:38.107Z,101205.40
2019-06-08T14:31:10.588Z,101204.16
2019-06-08T14:33:39.761Z,101201.34
2019-06-08T14:36:09.233Z,101205.98
2019-06-08T14:38:42.101Z,101200.47
2019-06-08T14:41:09.754Z,101189.81
2019-06-08T14:43:38.250Z,101191.09
2019-06-08T14:46:08.058Z,101181.65
2019-06-08T14:48:37.926Z,101197.82
2019-06-08T14:51:08.562Z,101204.67
2019-06-08T14:53:38.627Z,101188.20
2019-06-08T14:56:08.887Z,101186.45
2019-06-08T14:58:38.753Z,101195.48
2019-06-08T15:01:08.264Z,101186.91
2019-06-08T15:03:38.139Z,101200.22
2019-06-08T15:06:08.223Z,101204.21
2019-06-08T15:08:37.643Z,101237.89
2019-06-08T15:11:08.099Z,101265.54
2019-06-08T15:13:40.439Z,101247.67
2019-06-08T15:16:08.829Z,101221.38
2019-06-08T15:18:38.526Z,101222.23
2019-06-08T15:21:08.072Z,101220.94
2019-06-08T15:23:37.266Z,101220.92
2019-06-08T15:26:20.481Z,101226.44
2019-06-08T15:28:37.561Z,101235.03
2019-06-08T15:31:08.475Z,101239.27
2019-06-08T15:33:38.319Z,101243.33
2019-06-08T15:36:08.509Z,101244.80
2019-06-08T15:38:38.114Z,101245.03
2019-06-08T15:41:07.814Z,101252.67
2019-06-08T15:43:40.245Z,101262.73
2019-06-08T15:46:08.754Z,101255.19
2019-06-08T15:48:38.249Z,101261.16
2019-06-08T15:51:07.945Z,101258.69
2019-06-08T15:53:37.875Z,101257.27
2019-06-08T15:56:08.560Z,101267.94
2019-06-08T15:58:40.370Z,101271.94
2019-06-08T16:01:09.040Z,101274.27
2019-06-08T16:03:38.416Z,101277.73
2019-06-08T16:06:07.772Z,101277.21
2019-06-08T16:08:38.044Z,101274.95
2019-06-08T16:11:07.521Z,101274.55
2019-06-08T16:13:36.935Z,101269.62
2019-06-08T16:16:06.219Z,101272.42
2019-06-08T16:18:35.979Z,101293.98
2019-06-08T16:21:07.406Z,101279.89
2019-06-08T16:23:36.714Z,101278.48
2019-06-08T16:26:05.977Z,101284.43
2019-06-08T16:28:36.313Z,101280.30
2019-06-08T16:31:05.736Z,101285.31
2019-06-08T16:33:35.405Z,101273.87
2019-06-08T16:36:04.669Z,101284.04
2019-06-08T16:38:34.256Z,101286.58
2019-06-08T16:41:03.650Z,101288.05
2019-06-08T16:43:33.045Z,101293.38
2019-06-08T16:46:02.410Z,101279.05
2019-06-08T16:48:30.683Z,101285.13
2019-06-08T16:50:59.279Z,101283.48
2019-06-08T16:53:27.534Z,101290.94
2019-06-08T16:55:55.861Z,101292.51
2019-06-08T16:58:24.142Z,101299.48
2019-06-08T17:00:52.403Z,101283.55
2019-06-08T17:03:20.741Z,101303.98
2019-06-08T17:05:49.012Z,101297.30
2019-06-08T17:08:17.355Z,101310.59
2019-06-08T17:10:45.616Z,101314.63
2019-06-08T17:13:13.933Z,101323.67
2019-06-08T17:15:43.153Z,101319.48
2019-06-08T17:18:12.464Z,101333.31
2019-06-08T17:20:41.722Z,101329.64
2019-06-08T17:23:12.048Z,101339.64
2019-06-08T17:25:41.509Z,101336.61
2019-06-08T17:28:10.813Z,101330.30
2019-06-08T17:30:41.412Z,101329.41
2019-06-08T17:33:10.759Z,101332.98
2019-06-08T17:35:40.080Z,101339.49
2019-06-08T17:38:09.281Z,101343.25
2019-06-08T17:40:38.550Z,101332.70
2019-06-08T17:43:07.803Z,101338.23
2019-06-08T17:45:38.389Z,101341.97
2019-06-08T17:48:07.760Z,101335.00
2019-06-08T17:50:37.007Z,101350.20
2019-06-08T17:53:06.153Z,101349.15
2019-06-08T17:55:35.305Z,101355.47
2019-06-08T17:58:04.518Z,101352.70
2019-06-08T18:00:33.795Z,101361.08
2019-06-08T18:03:02.971Z,101366.14
2019-06-08T18:05:32.172Z,101360.88
2019-06-08T18:08:01.385Z,101368.72
2019-06-08T18:10:30.816Z,101367.66
2019-06-08T18:13:00.231Z,101362.67
2019-06-08T18:15:29.421Z,101361.42
2019-06-08T18:17:58.647Z,101372.08
2019-06-08T18:20:28.412Z,101370.52
2019-06-08T18:22:57.966Z,101373.13
2019-06-08T18:25:27.887Z,101370.72
2019-06-08T18:28:06.684Z,101366.41
2019-06-08T18:30:28.301Z,101371.05
2019-06-08T18:32:58.082Z,101372.48
2019-06-08T18:35:29.682Z,101378.50
2019-06-08T18:37:58.919Z,101386.42
2019-06-08T18:40:28.325Z,101384.60
2019-06-08T18:42:57.894Z,101380.88
2019-06-08T18:45:27.618Z,101386.64
2019-06-08T18:47:57.709Z,101385.75
2019-06-08T18:50:28.754Z,101387.83
2019-06-08T18:52:58.113Z,101385.69
2019-06-08T18:55:27.927Z,101385.77
2019-06-08T18:57:57.330Z,101386.77
2019-06-08T19:00:50.001Z,101383.48
2019-06-08T19:03:20.193Z,101393.36
2019-06-08T19:05:50.526Z,101392.06
2019-06-08T19:08:23.056Z,101393.03
2019-06-08T19:10:52.407Z,101400.40
2019-06-08T19:13:21.671Z,101410.42
2019-06-08T19:15:52.995Z,101412.98
2019-06-08T19:18:22.093Z,101416.53
2019-06-08T19:20:53.580Z,101420.26
2019-06-08T19:23:22.382Z,101422.74
2019-06-08T19:25:51.606Z,101418.14
2019-06-08T19:28:35.228Z,101417.70
2019-06-08T19:30:51.989Z,101431.44
2019-06-08T19:33:21.142Z,101433.98
2019-06-08T19:35:53.704Z,101425.95
2019-06-08T19:38:21.616Z,101436.27
2019-06-08T19:40:50.987Z,101435.06
2019-06-08T19:43:20.206Z,101435.19
2019-06-08T19:45:51.927Z,101444.33
2019-06-08T19:48:20.588Z,101448.41
2019-06-08T19:50:53.805Z,101448.28
2019-06-08T19:53:20.773Z,101456.20
2019-06-08T19:55:53.923Z,101463.63
2019-06-08T19:58:21.229Z,101470.00
2019-06-08T20:00:54.452Z,101476.92
2019-06-08T20:03:21.414Z,101489.51
2019-06-08T20:05:52.078Z,101490.75
2019-06-08T20:08:21.691Z,101488.93
2019-06-08T20:10:51.034Z,101496.08
2019-06-08T20:13:20.309Z,101508.86
2019-06-08T20:15:55.173Z,101512.67
2019-06-08T20:18:22.969Z,101514.06
2019-06-08T20:20:54.144Z,101516.81
2019-06-08T20:23:23.400Z,101521.83
2019-06-08T20:25:53.411Z,101526.28
2019-06-08T20:28:22.705Z,101527.71
2019-06-08T20:30:52.697Z,101532.09
2019-06-08T20:33:27.105Z,101535.63
2019-06-08T20:35:58.400Z,101537.64
2019-06-08T20:38:37.286Z,101538.17
2019-06-08T20:40:58.103Z,101546.18
2019-06-08T20:43:27.413Z,101546.97
2019-06-08T20:45:57.501Z,101541.59
2019-06-08T20:48:27.968Z,101548.92
2019-06-08T20:50:57.369Z,101552.61
2019-06-08T20:53:28.288Z,101563.13
2019-06-08T20:56:00.008Z,101558.70
2019-06-08T20:58:29.436Z,101565.55
2019-06-08T21:00:58.669Z,101565.19
2019-06-08T21:03:28.145Z,101566.03
2019-06-08T21:05:58.229Z,101570.14
2019-06-08T21:08:28.316Z,101573.56
2019-06-08T21:10:58.811Z,101573.97
2019-06-08T21:13:28.041Z,101577.47
2019-06-08T21:16:00.527Z,101577.75
2019-06-08T21:18:28.816Z,101576.80
2019-06-08T21:20:58.270Z,101578.78
2019-06-08T21:23:28.806Z,101587.80
2019-06-08T21:26:00.060Z,101582.02
2019-06-08T21:28:31.118Z,101592.23
2019-06-08T21:31:02.025Z,101593.89
2019-06-08T21:33:32.330Z,101593.80
2019-06-08T21:36:04.937Z,101602.22
2019-06-08T21:38:32.473Z,101600.70
2019-06-08T21:41:02.945Z,101606.20
2019-06-08T21:43:32.609Z,101603.84
2019-06-08T21:46:02.048Z,101601.17
2019-06-08T21:48:31.289Z,101602.70
2019-06-08T21:51:01.729Z,101607.86
2019-06-08T21:53:31.054Z,101603.54
2019-06-08T21:56:00.217Z,101604.95
2019-06-08T21:58:29.405Z,101606.75
2019-06-08T22:01:00.910Z,101605.43
2019-06-08T22:03:29.566Z,101610.96
2019-06-08T22:06:00.103Z,101616.97
2019-06-08T22:08:29.465Z,101616.28
2019-06-08T22:10:59.434Z,101617.13
2019-06-08T22:13:29.629Z,101619.86
2019-06-08T22:16:01.973Z,101618.86
2019-06-08T22:18:29.801Z,101621.53
2019-06-08T22:20:59.870Z,101619.44
2019-06-08T22:23:30.052Z,101619.94
2019-06-08T22:26:00.757Z,101619.53
2019-06-08T22:28:30.322Z,101624.28
2019-06-08T22:31:01.496Z,101617.23
2019-06-08T22:33:30.372Z,101627.48
2019-06-08T22:35:59.534Z,101633.59
2019-06-08T22:38:28.877Z,101633.00
2019-06-08T22:41:00.006Z,101628.88
2019-06-08T22:43:29.084Z,101630.69
2019-06-08T22:46:00.163Z,101631.29
2019-06-08T22:48:29.294Z,101631.58
2019-06-08T22:51:01.422Z,101639.48
2019-06-08T22:53:29.466Z,101636.16
2019-06-08T22:56:01.097Z,101646.77
2019-06-08T22:58:29.704Z,101645.73
2019-06-08T23:01:01.324Z,101648.19
2019-06-08T23:03:29.931Z,101654.42
2019-06-08T23:06:02.272Z,101658.17
2019-06-08T23:08:31.004Z,101659.27
2019-06-08T23:11:02.015Z,101656.73
2019-06-08T23:13:31.149Z,101663.89
2019-06-08T23:16:02.519Z,101663.42
2019-06-08T23:18:31.238Z,101660.14
2019-06-08T23:21:02.456Z,101665.86
2019-06-08T23:23:31.510Z,101668.12
2019-06-08T23:26:02.506Z,101666.98
2019-06-08T23:28:31.674Z,101666.72
2019-06-08T23:31:13.739Z,101668.13
2019-06-08T23:33:32.544Z,101666.54
2019-06-08T23:36:33.691Z,101661.00
2019-06-08T23:38:32.709Z,101661.56
2019-06-08T23:41:02.248Z,101661.56
2019-06-08T23:43:32.537Z,101660.52
2019-06-08T23:46:04.007Z,101661.84
2019-06-08T23:48:33.259Z,101656.13
2019-06-08T23:51:02.443Z,101661.94
2019-06-08T23:53:31.628Z,101659.77
2019-06-08T23:56:02.247Z,101657.52
2019-06-08T23:58:31.714Z,101654.70
